sensor_id;sensor_type;location;lat;lon;timestamp;P1;durP1;ratioP1;P2;durP2;ratioP2
5416;SDS011;2731;50.754;12.990;2023-08-17T00:00:51;12.77;;;11.45;;
5416;SDS011;2731;50.754;12.990;2023-08-17T00:03:19;20.58;;;11.95;;
5416;SDS011;2731;50.754;12.990;2023-08-17T00:06:05;12.93;;;11.45;;
5416;SDS011;2731;50.754;12.990;2023-08-17T00:08:36;12.45;;;11.05;;
5416;SDS011;2731;50.754;12.990;2023-08-17T00:11:21;12.27;;;10.63;;
5416;SDS011;2731;50.754;12.990;2023-08-17T00:13:50;15.05;;;13.00;;
5416;SDS011;2731;50.754;12.990;2023-08-17T00:16:37;14.18;;;11.73;;
5416;SDS011;2731;50.754;12.990;2023-08-17T00:19:24;13.02;;;11.70;;
5416;SDS011;2731;50.754;12.990;2023-08-17T00:22:11;13.57;;;10.48;;
5416;SDS011;2731;50.754;12.990;2023-08-17T00:24:57;15.50;;;12.15;;
5416;SDS011;2731;50.754;12.990;2023-08-17T00:27:47;17.67;;;12.23;;
5416;SDS011;2731;50.754;12.990;2023-08-17T00:30:33;12.23;;;11.02;;
5416;SDS011;2731;50.754;12.990;2023-08-17T00:33:07;15.07;;;12.32;;
5416;SDS011;2731;50.754;12.990;2023-08-17T00:35:37;13.95;;;11.60;;
5416;SDS011;2731;50.754;12.990;2023-08-17T00:38:10;14.07;;;11.98;;
5416;SDS011;2731;50.754;12.990;2023-08-17T00:40:38;13.38;;;11.88;;
5416;SDS011;2731;50.754;12.990;2023-08-17T00:43:05;12.63;;;11.00;;
5416;SDS011;2731;50.754;12.990;2023-08-17T00:45:49;13.35;;;11.95;;
5416;SDS011;2731;50.754;12.990;2023-08-17T00:48:17;16.40;;;12.25;;
5416;SDS011;2731;50.754;12.990;2023-08-17T00:50:45;15.07;;;12.95;;
5416;SDS011;2731;50.754;12.990;2023-08-17T00:53:14;15.23;;;13.60;;
5416;SDS011;2731;50.754;12.990;2023-08-17T00:56:00;14.20;;;12.40;;
5416;SDS011;2731;50.754;12.990;2023-08-17T00:58:29;15.05;;;11.13;;
5416;SDS011;2731;50.754;12.990;2023-08-17T01:01:17;13.63;;;12.23;;
5416;SDS011;2731;50.754;12.990;2023-08-17T01:03:43;14.70;;;12.02;;
5416;SDS011;2731;50.754;12.990;2023-08-17T01:06:29;15.60;;;12.60;;
5416;SDS011;2731;50.754;12.990;2023-08-17T01:09:15;16.17;;;12.48;;
5416;SDS011;2731;50.754;12.990;2023-08-17T01:12:24;13.60;;;12.18;;
5416;SDS011;2731;50.754;12.990;2023-08-17T01:15:12;15.85;;;12.68;;
5416;SDS011;2731;50.754;12.990;2023-08-17T01:21:09;14.13;;;12.65;;
5416;SDS011;2731;50.754;12.990;2023-08-17T01:23:37;14.90;;;12.73;;
5416;SDS011;2731;50.754;12.990;2023-08-17T01:26:24;14.68;;;13.23;;
5416;SDS011;2731;50.754;12.990;2023-08-17T01:28:52;14.55;;;12.93;;
5416;SDS011;2731;50.754;12.990;2023-08-17T01:31:42;13.82;;;12.38;;
5416;SDS011;2731;50.754;12.990;2023-08-17T01:34:37;14.45;;;12.48;;
5416;SDS011;2731;50.754;12.990;2023-08-17T01:37:26;16.30;;;13.73;;
5416;SDS011;2731;50.754;12.990;2023-08-17T01:40:13;17.40;;;13.30;;
5416;SDS011;2731;50.754;12.990;2023-08-17T01:43:02;14.52;;;13.00;;
5416;SDS011;2731;50.754;12.990;2023-08-17T01:45:58;14.80;;;13.20;;
5416;SDS011;2731;50.754;12.990;2023-08-17T01:48:24;15.55;;;12.65;;
5416;SDS011;2731;50.754;12.990;2023-08-17T01:51:13;12.80;;;11.30;;
5416;SDS011;2731;50.754;12.990;2023-08-17T01:53:39;13.65;;;11.52;;
5416;SDS011;2731;50.754;12.990;2023-08-17T01:56:08;14.40;;;12.90;;
5416;SDS011;2731;50.754;12.990;2023-08-17T01:58:37;15.95;;;12.48;;
5416;SDS011;2731;50.754;12.990;2023-08-17T02:01:23;13.32;;;11.98;;
5416;SDS011;2731;50.754;12.990;2023-08-17T02:04:11;13.05;;;11.57;;
5416;SDS011;2731;50.754;12.990;2023-08-17T02:06:59;12.70;;;11.45;;
5416;SDS011;2731;50.754;12.990;2023-08-17T02:09:26;17.27;;;12.52;;
5416;SDS011;2731;50.754;12.990;2023-08-17T02:11:53;12.63;;;11.32;;
5416;SDS011;2731;50.754;12.990;2023-08-17T02:14:21;12.45;;;11.30;;
5416;SDS011;2731;50.754;12.990;2023-08-17T02:16:50;12.52;;;11.20;;
5416;SDS011;2731;50.754;12.990;2023-08-17T02:19:17;13.95;;;11.15;;
5416;SDS011;2731;50.754;12.990;2023-08-17T02:21:46;15.13;;;11.75;;
5416;SDS011;2731;50.754;12.990;2023-08-17T02:24:13;14.43;;;11.23;;
5416;SDS011;2731;50.754;12.990;2023-08-17T02:26:41;13.35;;;10.63;;
5416;SDS011;2731;50.754;12.990;2023-08-17T02:29:08;11.65;;;10.05;;
5416;SDS011;2731;50.754;12.990;2023-08-17T02:31:37;12.98;;;10.10;;
5416;SDS011;2731;50.754;12.990;2023-08-17T02:34:05;14.55;;;10.77;;
5416;SDS011;2731;50.754;12.990;2023-08-17T02:36:35;12.70;;;9.82;;
5416;SDS011;2731;50.754;12.990;2023-08-17T02:39:03;12.63;;;11.32;;
5416;SDS011;2731;50.754;12.990;2023-08-17T02:41:30;13.55;;;11.10;;
5416;SDS011;2731;50.754;12.990;2023-08-17T02:44:02;11.77;;;10.57;;
5416;SDS011;2731;50.754;12.990;2023-08-17T02:46:32;14.60;;;10.95;;
5416;SDS011;2731;50.754;12.990;2023-08-17T02:49:00;11.50;;;10.40;;
5416;SDS011;2731;50.754;12.990;2023-08-17T02:51:28;11.63;;;10.40;;
5416;SDS011;2731;50.754;12.990;2023-08-17T02:53:58;11.55;;;10.35;;
5416;SDS011;2731;50.754;12.990;2023-08-17T02:56:26;13.73;;;9.88;;
5416;SDS011;2731;50.754;12.990;2023-08-17T02:58:52;12.57;;;10.50;;
5416;SDS011;2731;50.754;12.990;2023-08-17T03:01:20;11.77;;;10.35;;
5416;SDS011;2731;50.754;12.990;2023-08-17T03:03:49;12.45;;;10.38;;
5416;SDS011;2731;50.754;12.990;2023-08-17T03:06:17;14.30;;;10.73;;
5416;SDS011;2731;50.754;12.990;2023-08-17T03:08:46;12.63;;;10.65;;
5416;SDS011;2731;50.754;12.990;2023-08-17T03:11:12;11.40;;;10.30;;
5416;SDS011;2731;50.754;12.990;2023-08-17T03:13:40;11.35;;;10.25;;
5416;SDS011;2731;50.754;12.990;2023-08-17T03:16:09;11.70;;;10.50;;
5416;SDS011;2731;50.754;12.990;2023-08-17T03:18:37;12.73;;;11.40;;
5416;SDS011;2731;50.754;12.990;2023-08-17T03:21:06;14.45;;;10.13;;
5416;SDS011;2731;50.754;12.990;2023-08-17T03:23:34;13.30;;;11.18;;
5416;SDS011;2731;50.754;12.990;2023-08-17T03:26:03;12.50;;;11.20;;
5416;SDS011;2731;50.754;12.990;2023-08-17T03:28:29;11.80;;;10.57;;
5416;SDS011;2731;50.754;12.990;2023-08-17T03:30:55;13.25;;;10.45;;
5416;SDS011;2731;50.754;12.990;2023-08-17T03:33:21;15.38;;;11.35;;
5416;SDS011;2731;50.754;12.990;2023-08-17T03:35:53;12.77;;;10.90;;
5416;SDS011;2731;50.754;12.990;2023-08-17T03:38:22;13.63;;;12.23;;
5416;SDS011;2731;50.754;12.990;2023-08-17T03:40:49;15.20;;;13.18;;
5416;SDS011;2731;50.754;12.990;2023-08-17T03:43:18;17.80;;;12.88;;
5416;SDS011;2731;50.754;12.990;2023-08-17T03:45:47;16.88;;;11.77;;
5416;SDS011;2731;50.754;12.990;2023-08-17T03:48:18;18.70;;;14.20;;
5416;SDS011;2731;50.754;12.990;2023-08-17T03:50:52;16.08;;;12.98;;
5416;SDS011;2731;50.754;12.990;2023-08-17T03:53:19;14.55;;;13.05;;
5416;SDS011;2731;50.754;12.990;2023-08-17T03:55:49;17.02;;;13.75;;
5416;SDS011;2731;50.754;12.990;2023-08-17T03:58:18;18.98;;;14.45;;
5416;SDS011;2731;50.754;12.990;2023-08-17T04:00:49;20.20;;;15.23;;
5416;SDS011;2731;50.754;12.990;2023-08-17T04:03:18;24.85;;;17.95;;
5416;SDS011;2731;50.754;12.990;2023-08-17T04:05:49;21.53;;;18.27;;
5416;SDS011;2731;50.754;12.990;2023-08-17T04:08:16;22.73;;;19.08;;
5416;SDS011;2731;50.754;12.990;2023-08-17T04:10:44;22.88;;;19.50;;
5416;SDS011;2731;50.754;12.990;2023-08-17T04:13:11;26.90;;;20.73;;
5416;SDS011;2731;50.754;12.990;2023-08-17T04:15:40;27.00;;;20.30;;
5416;SDS011;2731;50.754;12.990;2023-08-17T04:18:08;26.85;;;21.80;;
5416;SDS011;2731;50.754;12.990;2023-08-17T04:20:35;25.55;;;22.05;;
5416;SDS011;2731;50.754;12.990;2023-08-17T04:23:22;27.58;;;22.25;;
5416;SDS011;2731;50.754;12.990;2023-08-17T04:26:08;28.40;;;22.25;;
5416;SDS011;2731;50.754;12.990;2023-08-17T04:28:43;26.58;;;21.70;;
5416;SDS011;2731;50.754;12.990;2023-08-17T04:31:29;30.52;;;22.23;;
5416;SDS011;2731;50.754;12.990;2023-08-17T04:33:56;30.52;;;24.75;;
5416;SDS011;2731;50.754;12.990;2023-08-17T04:36:45;27.83;;;23.25;;
5416;SDS011;2731;50.754;12.990;2023-08-17T04:39:15;24.75;;;22.10;;
5416;SDS011;2731;50.754;12.990;2023-08-17T04:41:44;26.50;;;22.27;;
5416;SDS011;2731;50.754;12.990;2023-08-17T04:44:12;34.13;;;26.42;;
5416;SDS011;2731;50.754;12.990;2023-08-17T04:46:39;27.63;;;23.83;;
5416;SDS011;2731;50.754;12.990;2023-08-17T04:49:07;29.58;;;22.50;;
5416;SDS011;2731;50.754;12.990;2023-08-17T04:51:35;27.33;;;23.90;;
5416;SDS011;2731;50.754;12.990;2023-08-17T04:54:20;25.60;;;22.60;;
5416;SDS011;2731;50.754;12.990;2023-08-17T04:57:07;22.88;;;20.00;;
5416;SDS011;2731;50.754;12.990;2023-08-17T04:59:56;25.08;;;21.33;;
5416;SDS011;2731;50.754;12.990;2023-08-17T05:02:41;24.77;;;19.02;;
5416;SDS011;2731;50.754;12.990;2023-08-17T05:05:27;21.30;;;18.60;;
5416;SDS011;2731;50.754;12.990;2023-08-17T05:08:13;21.25;;;17.95;;
5416;SDS011;2731;50.754;12.990;2023-08-17T05:10:40;19.73;;;16.38;;
5416;SDS011;2731;50.754;12.990;2023-08-17T05:13:30;23.83;;;18.65;;
5416;SDS011;2731;50.754;12.990;2023-08-17T05:16:15;19.83;;;16.60;;
5416;SDS011;2731;50.754;12.990;2023-08-17T05:18:51;18.88;;;16.80;;
5416;SDS011;2731;50.754;12.990;2023-08-17T05:21:36;21.23;;;15.55;;
5416;SDS011;2731;50.754;12.990;2023-08-17T05:24:03;19.05;;;15.73;;
5416;SDS011;2731;50.754;12.990;2023-08-17T05:26:49;17.00;;;14.60;;
5416;SDS011;2731;50.754;12.990;2023-08-17T05:29:17;14.70;;;13.15;;
5416;SDS011;2731;50.754;12.990;2023-08-17T05:32:05;16.55;;;14.35;;
5416;SDS011;2731;50.754;12.990;2023-08-17T05:34:32;14.50;;;13.10;;
5416;SDS011;2731;50.754;12.990;2023-08-17T05:37:19;18.38;;;12.30;;
5416;SDS011;2731;50.754;12.990;2023-08-17T05:40:05;10.35;;;9.15;;
5416;SDS011;2731;50.754;12.990;2023-08-17T05:42:54;12.82;;;8.65;;
5416;SDS011;2731;50.754;12.990;2023-08-17T05:45:41;9.77;;;8.75;;
5416;SDS011;2731;50.754;12.990;2023-08-17T05:48:28;9.13;;;7.97;;
5416;SDS011;2731;50.754;12.990;2023-08-17T05:51:15;9.80;;;8.80;;
5416;SDS011;2731;50.754;12.990;2023-08-17T05:53:53;12.70;;;8.85;;
5416;SDS011;2731;50.754;12.990;2023-08-17T05:56:41;9.45;;;7.57;;
5416;SDS011;2731;50.754;12.990;2023-08-17T05:59:22;8.30;;;7.30;;
5416;SDS011;2731;50.754;12.990;2023-08-17T06:02:08;9.52;;;7.95;;
5416;SDS011;2731;50.754;12.990;2023-08-17T06:04:37;10.27;;;8.18;;
5416;SDS011;2731;50.754;12.990;2023-08-17T06:07:23;7.18;;;6.40;;
5416;SDS011;2731;50.754;12.990;2023-08-17T06:10:09;9.38;;;8.15;;
5416;SDS011;2731;50.754;12.990;2023-08-17T06:12:56;10.25;;;8.82;;
5416;SDS011;2731;50.754;12.990;2023-08-17T06:15:42;15.68;;;9.45;;
5416;SDS011;2731;50.754;12.990;2023-08-17T06:18:30;12.65;;;9.35;;
5416;SDS011;2731;50.754;12.990;2023-08-17T06:21:15;12.38;;;9.05;;
5416;SDS011;2731;50.754;12.990;2023-08-17T06:24:01;10.93;;;8.65;;
5416;SDS011;2731;50.754;12.990;2023-08-17T06:26:46;11.23;;;9.38;;
5416;SDS011;2731;50.754;12.990;2023-08-17T06:29:16;13.07;;;11.68;;
5416;SDS011;2731;50.754;12.990;2023-08-17T06:32:04;11.60;;;10.40;;
5416;SDS011;2731;50.754;12.990;2023-08-17T06:34:33;14.95;;;11.60;;
5416;SDS011;2731;50.754;12.990;2023-08-17T06:37:20;14.95;;;10.48;;
5416;SDS011;2731;50.754;12.990;2023-08-17T06:40:06;18.23;;;13.57;;
5416;SDS011;2731;50.754;12.990;2023-08-17T06:42:56;19.00;;;14.15;;
5416;SDS011;2731;50.754;12.990;2023-08-17T06:45:43;21.85;;;14.88;;
5416;SDS011;2731;50.754;12.990;2023-08-17T06:48:30;18.92;;;14.73;;
5416;SDS011;2731;50.754;12.990;2023-08-17T06:51:17;17.88;;;14.35;;
5416;SDS011;2731;50.754;12.990;2023-08-17T06:54:00;17.73;;;14.43;;
5416;SDS011;2731;50.754;12.990;2023-08-17T06:56:46;17.90;;;13.70;;
5416;SDS011;2731;50.754;12.990;2023-08-17T06:59:15;15.43;;;13.60;;
5416;SDS011;2731;50.754;12.990;2023-08-17T07:02:00;21.60;;;17.17;;
5416;SDS011;2731;50.754;12.990;2023-08-17T07:04:28;24.50;;;17.85;;
5416;SDS011;2731;50.754;12.990;2023-08-17T07:07:14;25.10;;;16.58;;
5416;SDS011;2731;50.754;12.990;2023-08-17T07:09:41;21.83;;;14.98;;
5416;SDS011;2731;50.754;12.990;2023-08-17T07:12:28;18.27;;;15.23;;
5416;SDS011;2731;50.754;12.990;2023-08-17T07:15:13;22.08;;;16.45;;
5416;SDS011;2731;50.754;12.990;2023-08-17T07:17:59;20.95;;;16.58;;
5416;SDS011;2731;50.754;12.990;2023-08-17T07:20:45;23.17;;;18.00;;
5416;SDS011;2731;50.754;12.990;2023-08-17T07:23:32;20.23;;;16.02;;
5416;SDS011;2731;50.754;12.990;2023-08-17T07:26:18;19.27;;;16.02;;
5416;SDS011;2731;50.754;12.990;2023-08-17T07:29:05;22.35;;;16.33;;
5416;SDS011;2731;50.754;12.990;2023-08-17T07:31:49;24.90;;;16.60;;
5416;SDS011;2731;50.754;12.990;2023-08-17T07:34:20;21.60;;;16.17;;
5416;SDS011;2731;50.754;12.990;2023-08-17T07:37:06;24.73;;;17.67;;
5416;SDS011;2731;50.754;12.990;2023-08-17T07:39:43;21.83;;;18.05;;
5416;SDS011;2731;50.754;12.990;2023-08-17T07:42:10;22.27;;;16.33;;
5416;SDS011;2731;50.754;12.990;2023-08-17T07:44:38;22.40;;;18.88;;
5416;SDS011;2731;50.754;12.990;2023-08-17T07:47:26;22.85;;;16.90;;
5416;SDS011;2731;50.754;12.990;2023-08-17T07:49:53;20.38;;;17.65;;
5416;SDS011;2731;50.754;12.990;2023-08-17T07:52:41;22.60;;;18.95;;
5416;SDS011;2731;50.754;12.990;2023-08-17T07:55:26;22.73;;;18.13;;
5416;SDS011;2731;50.754;12.990;2023-08-17T07:58:12;24.45;;;19.00;;
5416;SDS011;2731;50.754;12.990;2023-08-17T08:00:59;21.92;;;18.33;;
5416;SDS011;2731;50.754;12.990;2023-08-17T08:03:46;23.63;;;18.33;;
5416;SDS011;2731;50.754;12.990;2023-08-17T08:06:32;22.63;;;16.23;;
5416;SDS011;2731;50.754;12.990;2023-08-17T08:09:12;21.55;;;16.73;;
5416;SDS011;2731;50.754;12.990;2023-08-17T08:11:57;23.15;;;18.23;;
5416;SDS011;2731;50.754;12.990;2023-08-17T08:14:28;23.75;;;17.85;;
5416;SDS011;2731;50.754;12.990;2023-08-17T08:17:01;22.58;;;18.58;;
5416;SDS011;2731;50.754;12.990;2023-08-17T08:19:27;20.20;;;16.48;;
5416;SDS011;2731;50.754;12.990;2023-08-17T08:21:54;21.58;;;16.58;;
5416;SDS011;2731;50.754;12.990;2023-08-17T08:24:23;23.55;;;19.27;;
5416;SDS011;2731;50.754;12.990;2023-08-17T08:26:51;22.70;;;18.30;;
5416;SDS011;2731;50.754;12.990;2023-08-17T08:29:20;20.35;;;17.00;;
5416;SDS011;2731;50.754;12.990;2023-08-17T08:31:48;18.00;;;15.90;;
5416;SDS011;2731;50.754;12.990;2023-08-17T08:34:15;20.65;;;16.55;;
5416;SDS011;2731;50.754;12.990;2023-08-17T08:36:44;17.70;;;15.27;;
5416;SDS011;2731;50.754;12.990;2023-08-17T08:39:13;16.48;;;14.52;;
5416;SDS011;2731;50.754;12.990;2023-08-17T08:41:40;16.85;;;14.88;;
5416;SDS011;2731;50.754;12.990;2023-08-17T08:44:09;18.90;;;15.38;;
5416;SDS011;2731;50.754;12.990;2023-08-17T08:46:39;19.33;;;15.90;;
5416;SDS011;2731;50.754;12.990;2023-08-17T08:49:25;19.25;;;16.25;;
5416;SDS011;2731;50.754;12.990;2023-08-17T08:51:54;18.70;;;15.27;;
5416;SDS011;2731;50.754;12.990;2023-08-17T08:56:59;16.83;;;15.05;;
5416;SDS011;2731;50.754;12.990;2023-08-17T08:59:28;21.13;;;16.38;;
5416;SDS011;2731;50.754;12.990;2023-08-17T09:01:57;18.58;;;16.55;;
5416;SDS011;2731;50.754;12.990;2023-08-17T09:04:27;17.25;;;15.40;;
5416;SDS011;2731;50.754;12.990;2023-08-17T09:06:56;19.45;;;15.43;;
5416;SDS011;2731;50.754;12.990;2023-08-17T09:09:23;16.13;;;14.43;;
5416;SDS011;2731;50.754;12.990;2023-08-17T09:11:51;17.88;;;14.60;;
5416;SDS011;2731;50.754;12.990;2023-08-17T09:14:17;20.83;;;15.52;;
5416;SDS011;2731;50.754;12.990;2023-08-17T09:16:46;18.30;;;13.95;;
5416;SDS011;2731;50.754;12.990;2023-08-17T09:19:15;16.10;;;14.40;;
5416;SDS011;2731;50.754;12.990;2023-08-17T09:21:45;15.70;;;13.05;;
5416;SDS011;2731;50.754;12.990;2023-08-17T09:24:15;15.02;;;13.40;;
5416;SDS011;2731;50.754;12.990;2023-08-17T09:26:43;16.70;;;13.90;;
5416;SDS011;2731;50.754;12.990;2023-08-17T09:29:16;13.82;;;12.38;;
5416;SDS011;2731;50.754;12.990;2023-08-17T09:31:44;14.00;;;12.27;;
5416;SDS011;2731;50.754;12.990;2023-08-17T09:34:11;14.35;;;12.75;;
5416;SDS011;2731;50.754;12.990;2023-08-17T09:36:41;22.52;;;12.88;;
5416;SDS011;2731;50.754;12.990;2023-08-17T09:39:10;16.10;;;14.43;;
5416;SDS011;2731;50.754;12.990;2023-08-17T09:41:40;14.23;;;12.68;;
5416;SDS011;2731;50.754;12.990;2023-08-17T09:44:09;29.50;;;14.07;;
5416;SDS011;2731;50.754;12.990;2023-08-17T09:46:39;16.65;;;13.25;;
5416;SDS011;2731;50.754;12.990;2023-08-17T09:49:06;14.75;;;13.00;;
5416;SDS011;2731;50.754;12.990;2023-08-17T09:51:34;14.30;;;12.80;;
5416;SDS011;2731;50.754;12.990;2023-08-17T09:54:00;14.90;;;13.40;;
5416;SDS011;2731;50.754;12.990;2023-08-17T09:56:28;13.10;;;11.70;;
5416;SDS011;2731;50.754;12.990;2023-08-17T09:58:57;14.63;;;12.63;;
5416;SDS011;2731;50.754;12.990;2023-08-17T10:01:24;14.25;;;12.23;;
5416;SDS011;2731;50.754;12.990;2023-08-17T10:03:52;15.63;;;13.18;;
5416;SDS011;2731;50.754;12.990;2023-08-17T10:06:22;16.60;;;12.80;;
5416;SDS011;2731;50.754;12.990;2023-08-17T10:08:51;14.38;;;12.65;;
5416;SDS011;2731;50.754;12.990;2023-08-17T10:11:19;14.73;;;12.80;;
5416;SDS011;2731;50.754;12.990;2023-08-17T10:14:00;16.42;;;13.15;;
5416;SDS011;2731;50.754;12.990;2023-08-17T10:16:44;14.27;;;12.88;;
5416;SDS011;2731;50.754;12.990;2023-08-17T10:22:15;15.48;;;13.88;;
5416;SDS011;2731;50.754;12.990;2023-08-17T10:25:11;15.18;;;13.57;;
5416;SDS011;2731;50.754;12.990;2023-08-17T10:27:41;14.38;;;12.88;;
5416;SDS011;2731;50.754;12.990;2023-08-17T10:30:10;15.20;;;13.45;;
5416;SDS011;2731;50.754;12.990;2023-08-17T10:32:37;13.30;;;11.90;;
5416;SDS011;2731;50.754;12.990;2023-08-17T10:35:05;15.15;;;13.55;;
5416;SDS011;2731;50.754;12.990;2023-08-17T10:37:33;15.65;;;12.93;;
5416;SDS011;2731;50.754;12.990;2023-08-17T10:40:01;14.43;;;12.93;;
5416;SDS011;2731;50.754;12.990;2023-08-17T10:42:35;21.35;;;15.80;;
5416;SDS011;2731;50.754;12.990;2023-08-17T10:45:47;16.80;;;15.00;;
5416;SDS011;2731;50.754;12.990;2023-08-17T10:47:49;16.70;;;14.60;;
5416;SDS011;2731;50.754;12.990;2023-08-17T10:50:23;18.90;;;15.48;;
5416;SDS011;2731;50.754;12.990;2023-08-17T10:52:53;17.08;;;15.38;;
5416;SDS011;2731;50.754;12.990;2023-08-17T10:55:44;19.65;;;14.55;;
5416;SDS011;2731;50.754;12.990;2023-08-17T10:58:10;20.58;;;16.13;;
5416;SDS011;2731;50.754;12.990;2023-08-17T11:00:37;17.50;;;14.68;;
5416;SDS011;2731;50.754;12.990;2023-08-17T11:03:09;19.65;;;14.77;;
5416;SDS011;2731;50.754;12.990;2023-08-17T11:08:10;16.67;;;14.10;;
5416;SDS011;2731;50.754;12.990;2023-08-17T11:10:40;15.15;;;13.65;;
5416;SDS011;2731;50.754;12.990;2023-08-17T11:13:07;14.50;;;13.00;;
5416;SDS011;2731;50.754;12.990;2023-08-17T11:15:42;14.05;;;12.57;;
5416;SDS011;2731;50.754;12.990;2023-08-17T11:18:12;14.70;;;13.13;;
5416;SDS011;2731;50.754;12.990;2023-08-17T11:20:40;15.05;;;13.57;;
5416;SDS011;2731;50.754;12.990;2023-08-17T11:23:07;13.80;;;12.40;;
5416;SDS011;2731;50.754;12.990;2023-08-17T11:25:33;13.93;;;12.52;;
5416;SDS011;2731;50.754;12.990;2023-08-17T11:28:01;15.90;;;14.13;;
5416;SDS011;2731;50.754;12.990;2023-08-17T11:30:29;18.83;;;14.65;;
5416;SDS011;2731;50.754;12.990;2023-08-17T11:32:56;14.43;;;12.93;;
5416;SDS011;2731;50.754;12.990;2023-08-17T11:35:23;16.30;;;13.63;;
5416;SDS011;2731;50.754;12.990;2023-08-17T11:37:55;14.70;;;12.13;;
5416;SDS011;2731;50.754;12.990;2023-08-17T11:40:22;13.63;;;12.32;;
5416;SDS011;2731;50.754;12.990;2023-08-17T11:42:50;14.73;;;13.18;;
5416;SDS011;2731;50.754;12.990;2023-08-17T11:45:19;14.32;;;12.82;;
5416;SDS011;2731;50.754;12.990;2023-08-17T11:47:47;15.02;;;13.60;;
5416;SDS011;2731;50.754;12.990;2023-08-17T11:50:13;14.55;;;12.25;;
5416;SDS011;2731;50.754;12.990;2023-08-17T11:52:42;16.70;;;13.00;;
5416;SDS011;2731;50.754;12.990;2023-08-17T11:55:10;14.63;;;13.07;;
5416;SDS011;2731;50.754;12.990;2023-08-17T11:57:46;13.02;;;11.73;;
5416;SDS011;2731;50.754;12.990;2023-08-17T12:00:18;15.85;;;13.38;;
5416;SDS011;2731;50.754;12.990;2023-08-17T12:02:50;15.98;;;13.43;;
5416;SDS011;2731;50.754;12.990;2023-08-17T12:05:23;22.13;;;16.10;;
5416;SDS011;2731;50.754;12.990;2023-08-17T12:08:07;14.52;;;13.13;;
5416;SDS011;2731;50.754;12.990;2023-08-17T12:10:44;17.23;;;13.65;;
5416;SDS011;2731;50.754;12.990;2023-08-17T12:13:12;20.50;;;15.63;;
5416;SDS011;2731;50.754;12.990;2023-08-17T12:15:40;13.07;;;11.73;;
5416;SDS011;2731;50.754;12.990;2023-08-17T12:18:09;12.80;;;11.02;;
5416;SDS011;2731;50.754;12.990;2023-08-17T12:20:38;11.57;;;9.40;;
5416;SDS011;2731;50.754;12.990;2023-08-17T12:23:09;11.93;;;10.68;;
5416;SDS011;2731;50.754;12.990;2023-08-17T12:25:38;11.05;;;9.73;;
5416;SDS011;2731;50.754;12.990;2023-08-17T12:28:05;11.73;;;10.52;;
5416;SDS011;2731;50.754;12.990;2023-08-17T12:30:35;11.05;;;8.77;;
5416;SDS011;2731;50.754;12.990;2023-08-17T12:33:05;11.45;;;8.88;;
5416;SDS011;2731;50.754;12.990;2023-08-17T12:35:35;8.88;;;7.95;;
5416;SDS011;2731;50.754;12.990;2023-08-17T12:38:02;9.65;;;6.50;;
5416;SDS011;2731;50.754;12.990;2023-08-17T12:40:29;7.13;;;6.18;;
5416;SDS011;2731;50.754;12.990;2023-08-17T12:42:57;6.85;;;5.25;;
5416;SDS011;2731;50.754;12.990;2023-08-17T12:45:24;32.97;;;20.23;;
5416;SDS011;2731;50.754;12.990;2023-08-17T12:47:52;8.70;;;5.93;;
5416;SDS011;2731;50.754;12.990;2023-08-17T12:50:19;5.80;;;5.20;;
5416;SDS011;2731;50.754;12.990;2023-08-17T12:52:46;5.97;;;5.03;;
5416;SDS011;2731;50.754;12.990;2023-08-17T12:55:14;5.28;;;4.78;;
5416;SDS011;2731;50.754;12.990;2023-08-17T12:57:41;5.10;;;4.47;;
5416;SDS011;2731;50.754;12.990;2023-08-17T13:00:10;6.00;;;4.88;;
5416;SDS011;2731;50.754;12.990;2023-08-17T13:02:36;7.40;;;5.13;;
5416;SDS011;2731;50.754;12.990;2023-08-17T13:05:05;6.28;;;5.07;;
5416;SDS011;2731;50.754;12.990;2023-08-17T13:07:33;6.70;;;5.22;;
5416;SDS011;2731;50.754;12.990;2023-08-17T13:10:01;6.43;;;5.82;;
5416;SDS011;2731;50.754;12.990;2023-08-17T13:12:30;9.45;;;5.88;;
5416;SDS011;2731;50.754;12.990;2023-08-17T13:14:57;8.35;;;6.30;;
5416;SDS011;2731;50.754;12.990;2023-08-17T13:17:25;6.72;;;6.10;;
5416;SDS011;2731;50.754;12.990;2023-08-17T13:19:53;6.53;;;5.88;;
5416;SDS011;2731;50.754;12.990;2023-08-17T13:22:20;7.70;;;6.57;;
5416;SDS011;2731;50.754;12.990;2023-08-17T13:24:49;9.95;;;6.90;;
5416;SDS011;2731;50.754;12.990;2023-08-17T13:27:17;8.05;;;7.20;;
5416;SDS011;2731;50.754;12.990;2023-08-17T13:29:44;7.45;;;6.65;;
5416;SDS011;2731;50.754;12.990;2023-08-17T13:32:13;23.83;;;13.95;;
5416;SDS011;2731;50.754;12.990;2023-08-17T13:34:41;8.82;;;7.70;;
5416;SDS011;2731;50.754;12.990;2023-08-17T13:37:10;10.45;;;7.93;;
5416;SDS011;2731;50.754;12.990;2023-08-17T13:39:37;8.50;;;7.32;;
5416;SDS011;2731;50.754;12.990;2023-08-17T13:42:05;9.13;;;7.32;;
5416;SDS011;2731;50.754;12.990;2023-08-17T13:44:32;20.17;;;11.60;;
5416;SDS011;2731;50.754;12.990;2023-08-17T13:47:01;8.63;;;7.72;;
5416;SDS011;2731;50.754;12.990;2023-08-17T13:49:27;8.57;;;7.65;;
5416;SDS011;2731;50.754;12.990;2023-08-17T13:51:53;10.00;;;8.23;;
5416;SDS011;2731;50.754;12.990;2023-08-17T13:54:22;9.38;;;8.52;;
5416;SDS011;2731;50.754;12.990;2023-08-17T13:56:50;10.15;;;9.13;;
5416;SDS011;2731;50.754;12.990;2023-08-17T13:59:44;9.40;;;8.43;;
5416;SDS011;2731;50.754;12.990;2023-08-17T14:02:13;9.60;;;8.43;;
5416;SDS011;2731;50.754;12.990;2023-08-17T14:04:46;8.73;;;7.82;;
5416;SDS011;2731;50.754;12.990;2023-08-17T14:07:19;10.07;;;8.07;;
5416;SDS011;2731;50.754;12.990;2023-08-17T14:09:53;8.30;;;7.50;;
5416;SDS011;2731;50.754;12.990;2023-08-17T14:12:26;8.35;;;7.55;;
5416;SDS011;2731;50.754;12.990;2023-08-17T14:14:53;8.40;;;7.22;;
5416;SDS011;2731;50.754;12.990;2023-08-17T14:17:20;12.23;;;7.88;;
5416;SDS011;2731;50.754;12.990;2023-08-17T14:19:48;9.18;;;7.72;;
5416;SDS011;2731;50.754;12.990;2023-08-17T14:22:16;7.50;;;6.55;;
5416;SDS011;2731;50.754;12.990;2023-08-17T14:24:45;8.93;;;7.20;;
5416;SDS011;2731;50.754;12.990;2023-08-17T14:27:13;9.93;;;6.90;;
5416;SDS011;2731;50.754;12.990;2023-08-17T14:29:41;11.20;;;7.40;;
5416;SDS011;2731;50.754;12.990;2023-08-17T14:32:08;8.25;;;7.10;;
5416;SDS011;2731;50.754;12.990;2023-08-17T14:34:34;8.32;;;6.95;;
5416;SDS011;2731;50.754;12.990;2023-08-17T14:37:02;8.55;;;7.53;;
5416;SDS011;2731;50.754;12.990;2023-08-17T14:39:32;8.18;;;6.70;;
5416;SDS011;2731;50.754;12.990;2023-08-17T14:41:59;7.70;;;7.00;;
5416;SDS011;2731;50.754;12.990;2023-08-17T14:44:29;7.93;;;7.18;;
5416;SDS011;2731;50.754;12.990;2023-08-17T14:47:00;8.05;;;7.25;;
5416;SDS011;2731;50.754;12.990;2023-08-17T14:49:28;8.95;;;7.72;;
5416;SDS011;2731;50.754;12.990;2023-08-17T14:51:56;8.13;;;7.43;;
5416;SDS011;2731;50.754;12.990;2023-08-17T14:54:26;8.25;;;7.32;;
5416;SDS011;2731;50.754;12.990;2023-08-17T14:56:52;10.02;;;7.32;;
5416;SDS011;2731;50.754;12.990;2023-08-17T14:59:20;8.98;;;6.88;;
5416;SDS011;2731;50.754;12.990;2023-08-17T15:01:50;9.00;;;6.20;;
5416;SDS011;2731;50.754;12.990;2023-08-17T15:04:17;7.30;;;6.55;;
5416;SDS011;2731;50.754;12.990;2023-08-17T15:06:45;11.77;;;6.38;;
5416;SDS011;2731;50.754;12.990;2023-08-17T15:09:15;9.18;;;6.80;;
5416;SDS011;2731;50.754;12.990;2023-08-17T15:11:43;8.23;;;7.00;;
5416;SDS011;2731;50.754;12.990;2023-08-17T15:14:14;7.00;;;6.30;;
5416;SDS011;2731;50.754;12.990;2023-08-17T15:16:41;7.03;;;5.55;;
5416;SDS011;2731;50.754;12.990;2023-08-17T15:19:09;12.18;;;6.85;;
5416;SDS011;2731;50.754;12.990;2023-08-17T15:21:37;6.72;;;5.63;;
5416;SDS011;2731;50.754;12.990;2023-08-17T15:24:05;7.32;;;6.63;;
5416;SDS011;2731;50.754;12.990;2023-08-17T15:26:34;10.13;;;7.85;;
5416;SDS011;2731;50.754;12.990;2023-08-17T15:29:01;8.45;;;6.82;;